Time;durP1;ratioP1;P1;durP2;ratioP2;P2;SDS_P1;SDS_P2;PMS_P1;PMS_P2;Temp;Humidity;BMP_temperature;BMP_pressure;BME280_temperature;BME280_humidity;BME280_pressure;Samples;Min_cycle;Max_cycle;Signal;HPM_P1;HPM_P2
2021/05/27 00:00:04;;;;;;;;;;;;;;;5.61;79.64;96111.00;3592256;39;20497;-53
2021/05/27 00:02:31;;;;;;;;;;;;;;;5.59;79.25;96113.84;3593822;39;20839;-54
2021/05/27 00:04:59;;;;;;;;;;;;;;;5.60;79.79;96112.03;3603584;39;19948;-53
2021/05/27 00:07:26;;;;;;;;;;;;;;;5.61;80.03;96108.38;3604351;39;19943;-53
2021/05/27 00:09:53;;;;;;;;;;;;;;;5.60;79.60;96109.44;3604221;39;19960;-54
2021/05/27 00:12:21;;;;;;;;;;;;;;;5.61;79.76;96111.00;3595050;39;19971;-54
2021/05/27 00:14:49;;;;;;;;;;;;;;;5.57;79.71;96109.88;3605232;39;19942;-53
2021/05/27 00:17:16;;;;;;;;;;;;;;;5.50;80.22;96100.25;3593026;39;20389;-53
2021/05/27 00:19:44;;;;;;;;;;;;;;;5.51;80.97;96122.00;3604135;39;20200;-55
2021/05/27 00:22:11;;;;;;;;;;;;;;;5.51;80.22;96117.56;3603784;39;19943;-53
2021/05/27 00:24:39;;;;;;;;;;;;;;;5.50;82.08;96121.19;3601984;39;19948;-53
2021/05/27 00:27:06;;;;;;;;;;;;;;;5.52;80.99;96123.59;3581487;39;19942;-52
2021/05/27 00:29:34;;;;;;;;;;;;;;;5.57;80.70;96125.56;3605070;39;19946;-54
2021/05/27 00:32:02;;;;;;;;;;;;;;;5.59;80.56;96123.53;3603442;39;20483;-54
2021/05/27 00:34:29;;;;;;;;;;;;;;;5.61;80.75;96118.84;3601580;39;20208;-53
2021/05/27 00:36:57;;;;;;;;;;;;;;;5.62;80.39;96128.31;3604204;39;19958;-52
2021/05/27 00:39:24;;;;;;;;;;;;;;;5.61;80.18;96122.28;3593382;39;19943;-53
2021/05/27 00:41:52;;;;;;;;;;;;;;;5.60;79.89;96118.06;3603467;39;20462;-54
2021/05/27 00:44:19;;;;;;;;;;;;;;;5.56;80.71;96124.75;3603580;39;19961;-54
2021/05/27 00:46:47;;;;;;;;;;;;;;;5.57;80.89;96122.94;3592742;39;20001;-53
2021/05/27 00:49:15;;;;;;;;;;;;;;;5.53;80.59;96117.34;3601117;39;19944;-53
2021/05/27 00:51:43;;;;;;;;;;;;;;;5.53;80.88;96114.75;3592627;39;19936;-53
2021/05/27 00:54:11;;;;;;;;;;;;;;;5.55;81.03;96120.53;3592113;39;19946;-53
2021/05/27 00:56:40;;;;;;;;;;;;;;;5.55;80.18;96123.16;3603566;39;20465;-52
2021/05/27 00:59:08;;;;;;;;;;;;;;;5.56;80.51;96123.97;3601916;39;20288;-53
2021/05/27 01:01:36;;;;;;;;;;;;;;;5.54;80.68;96124.97;3603451;39;19943;-53
2021/05/27 01:04:04;;;;;;;;;;;;;;;5.52;80.29;96124.38;3599424;39;19942;-52
2021/05/27 01:06:32;;;;;;;;;;;;;;;5.55;80.51;96123.16;3602211;39;19943;-52
2021/05/27 01:09:00;;;;;;;;;;;;;;;5.58;80.46;96127.94;3602617;39;19936;-53
2021/05/27 01:11:29;;;;;;;;;;;;;;;5.58;80.07;96124.53;3601797;39;19947;-53
2021/05/27 01:14:09;;;;;;;;;;;;;;;5.54;80.96;96118.94;3603796;39;19965;-53
2021/05/27 01:16:37;;;;;;;;;;;;;;;5.57;80.24;96121.13;3593611;39;20205;-53
2021/05/27 01:19:05;;;;;;;;;;;;;;;5.60;80.37;96127.75;3589719;39;19977;-53
2021/05/27 01:21:33;;;;;;;;;;;;;;;5.57;81.16;96133.41;3593259;39;19936;-53
2021/05/27 01:24:01;;;;;;;;;;;;;;;5.49;81.76;96124.03;3586783;39;19942;-53
2021/05/27 01:26:29;;;;;;;;;;;;;;;5.47;81.64;96123.44;3602723;39;20043;-54
2021/05/27 01:28:58;;;;;;;;;;;;;;;5.41;81.08;96109.41;3602094;39;19946;-58
2021/05/27 01:31:26;;;;;;;;;;;;;;;5.42;81.98;96126.72;3602506;39;20267;-56
2021/05/27 01:33:53;;;;;;;;;;;;;;;5.43;82.00;96127.50;3600218;39;19943;-52
2021/05/27 01:36:21;;;;;;;;;;;;;;;5.45;81.06;96123.66;3602845;39;19953;-52
2021/05/27 01:38:48;;;;;;;;;;;;;;;5.48;81.43;96117.97;3590985;39;19944;-53
2021/05/27 01:41:16;;;;;;;;;;;;;;;5.47;81.50;96124.25;3603231;39;20314;-55
2021/05/27 01:43:45;;;;;;;;;;;;;;;5.49;81.39;96119.59;3601707;39;20212;-53
2021/05/27 01:46:13;;;;;;;;;;;;;;;5.52;81.49;96116.53;3603757;39;20256;-53
2021/05/27 01:48:41;;;;;;;;;;;;;;;5.54;81.13;96111.88;3591862;39;19944;-53
2021/05/27 01:51:11;;;;;;;;;;;;;;;5.56;81.13;96119.50;3601203;39;20212;-53
2021/05/27 01:53:39;;;;;;;;;;;;;;;5.62;81.79;96117.84;3598000;39;20200;-54
2021/05/27 01:56:07;;;;;;;;;;;;;;;5.62;81.03;96120.47;3602965;39;19952;-53
2021/05/27 01:58:38;;;;;;;;;;;;;;;5.65;80.76;96128.69;3583711;39;19948;-53
2021/05/27 02:01:06;;;;;;;;;;;;;;;5.72;80.72;96122.56;3603658;39;19950;-54
2021/05/27 02:03:40;;;;;;;;;;;;;;;5.75;81.13;96128.16;3593678;39;19952;-52
2021/05/27 02:06:13;;;;;;;;;;;;;;;5.77;81.12;96120.09;3594571;39;19944;-53
2021/05/27 02:09:07;;;;;;;;;;;;;;;5.73;80.59;96118.94;3589408;39;20161;-51
2021/05/27 02:11:46;;;;;;;;;;;;;;;5.68;80.21;96117.75;3603048;39;19962;-54
2021/05/27 02:14:16;;;;;;;;;;;;;;;5.73;80.32;96124.16;3584005;39;20224;-54
2021/05/27 02:16:44;;;;;;;;;;;;;;;5.77;80.07;96122.72;3603954;39;19942;-56
2021/05/27 02:19:12;;;;;;;;;;;;;;;5.83;80.00;96119.22;3600134;39;20234;-53
2021/05/27 02:21:42;;;;;;;;;;;;;;;5.87;79.79;96116.94;3603186;39;19944;-53
2021/05/27 02:24:14;;;;;;;;;;;;;;;5.90;80.06;96119.94;3598660;39;19942;-53
2021/05/27 02:26:42;;;;;;;;;;;;;;;5.94;79.63;96121.09;3603826;39;20020;-53
2021/05/27 02:29:14;;;;;;;;;;;;;;;5.99;80.09;96109.94;3593061;39;19932;-53
2021/05/27 02:31:44;;;;;;;;;;;;;;;6.09;79.83;96117.31;3601558;39;19950;-54
2021/05/27 02:34:17;;;;;;;;;;;;;;;6.14;80.34;96123.47;3603834;39;19954;-52
2021/05/27 02:36:46;;;;;;;;;;;;;;;6.20;79.61;96123.63;3593902;39;19946;-53
2021/05/27 02:39:14;;;;;;;;;;;;;;;6.25;79.93;96123.75;3585520;39;20567;-53
2021/05/27 02:42:00;;;;;;;;;;;;;;;6.30;79.86;96124.66;3595546;39;19944;-52
2021/05/27 02:44:29;;;;;;;;;;;;;;;6.38;78.82;96131.41;3601235;39;20872;-53
2021/05/27 02:46:58;;;;;;;;;;;;;;;6.46;78.74;96123.22;3593622;39;19952;-53
2021/05/27 02:49:26;;;;;;;;;;;;;;;6.47;78.57;96124.03;3592181;39;20988;-53
2021/05/27 02:51:57;;;;;;;;;;;;;;;6.47;78.91;96124.84;3594712;39;20364;-53
2021/05/27 02:54:25;;;;;;;;;;;;;;;6.52;79.04;96121.56;3603560;39;19961;-52
2021/05/27 02:56:59;;;;;;;;;;;;;;;6.55;78.57;96115.84;3581897;39;20211;-52
2021/05/27 02:59:30;;;;;;;;;;;;;;;6.60;77.96;96120.41;3583119;39;19947;-53
2021/05/27 03:02:00;;;;;;;;;;;;;;;6.65;77.68;96119.75;3594114;39;19971;-52
2021/05/27 03:04:29;;;;;;;;;;;;;;;6.67;77.14;96126.38;3600752;39;19946;-55
2021/05/27 03:06:58;;;;;;;;;;;;;;;6.67;77.52;96126.38;3593131;39;20038;-53
2021/05/27 03:09:27;;;;;;;;;;;;;;;6.72;78.02;96123.84;3591591;39;19948;-53
2021/05/27 03:11:57;;;;;;;;;;;;;;;6.74;77.43;96115.78;3593651;39;19936;-53
2021/05/27 03:14:26;;;;;;;;;;;;;;;6.73;76.98;96128.09;3592632;39;19944;-53
2021/05/27 03:17:00;;;;;;;;;;;;;;;6.76;77.67;96134.72;3591822;39;19940;-53
2021/05/27 03:19:27;;;;;;;;;;;;;;;6.82;77.03;96135.63;3590690;39;20025;-53
2021/05/27 03:21:57;;;;;;;;;;;;;;;6.82;76.98;96139.03;3593448;39;20081;-54
2021/05/27 03:24:24;;;;;;;;;;;;;;;6.81;77.42;96140.06;3591764;39;20319;-53
2021/05/27 03:26:53;;;;;;;;;;;;;;;6.85;77.72;96137.78;3594352;39;19948;-54
2021/05/27 03:29:24;;;;;;;;;;;;;;;6.86;77.92;96136.75;3592519;39;19943;-53
2021/05/27 03:31:52;;;;;;;;;;;;;;;6.88;78.37;96135.53;3589682;39;19950;-54
2021/05/27 03:34:20;;;;;;;;;;;;;;;6.89;78.21;96131.84;3593772;39;19952;-54
2021/05/27 03:36:48;;;;;;;;;;;;;;;6.95;77.14;96130.19;3593732;39;19940;-54
2021/05/27 03:39:16;;;;;;;;;;;;;;;7.01;76.96;96129.25;3592035;39;19944;-54
2021/05/27 03:41:47;;;;;;;;;;;;;;;7.08;76.91;96129.94;3593239;39;19950;-54
2021/05/27 03:44:15;;;;;;;;;;;;;;;7.14;76.68;96133.47;3593943;39;19940;-53
2021/05/27 03:46:45;;;;;;;;;;;;;;;7.19;76.29;96135.44;3591460;39;19936;-54
2021/05/27 03:49:13;;;;;;;;;;;;;;;7.28;76.24;96126.19;3590816;39;20195;-53
2021/05/27 03:51:41;;;;;;;;;;;;;;;7.32;76.60;96137.03;3594015;39;19944;-53
2021/05/27 03:54:09;;;;;;;;;;;;;;;7.41;75.56;96140.09;3601237;39;20278;-53
2021/05/27 03:56:37;;;;;;;;;;;;;;;7.48;75.96;96143.41;3581415;39;20182;-56
2021/05/27 04:01:58;;;;;;;;;;;;;;;7.62;76.14;96131.63;3589784;39;19939;-54
2021/05/27 04:07:24;;;;;;;;;;;;;;;7.78;75.66;96135.34;3592143;39;20472;-54
2021/05/27 04:09:51;;;;;;;;;;;;;;;7.80;74.68;96130.66;3589428;39;19951;-54
2021/05/27 04:17:59;;;;;;;;;;;;;;;7.93;74.85;96134.06;3589764;39;21533;-55
2021/05/27 04:20:34;;;;;;;;;;;;;;;7.99;74.75;96130.53;3591441;39;20123;-54
2021/05/27 04:23:03;;;;;;;;;;;;;;;7.99;74.46;96127.88;3589819;39;19951;-54
2021/05/27 04:25:30;;;;;;;;;;;;;;;8.02;74.03;96129.25;3591215;39;19948;-54
2021/05/27 04:27:58;;;;;;;;;;;;;;;8.12;73.30;96132.84;3587964;39;20289;-54
2021/05/27 04:30:26;;;;;;;;;;;;;;;8.27;72.83;96128.91;3598339;39;19946;-54
2021/05/27 04:33:07;;;;;;;;;;;;;;;8.37;72.29;96133.56;3592694;39;20036;-54
2021/05/27 04:35:38;;;;;;;;;;;;;;;8.45;72.50;96135.78;3590736;39;19948;-54
2021/05/27 04:38:06;;;;;;;;;;;;;;;8.48;73.01;96127.47;3591708;39;19936;-55
2021/05/27 04:40:34;;;;;;;;;;;;;;;8.54;72.82;96131.81;3591132;39;19942;-55
2021/05/27 04:43:03;;;;;;;;;;;;;;;8.63;71.78;96126.16;3592570;39;19936;-54
2021/05/27 04:45:30;;;;;;;;;;;;;;;8.75;71.42;96129.50;3593632;39;20270;-53
2021/05/27 04:47:58;;;;;;;;;;;;;;;8.91;71.61;96136.63;3588636;39;20014;-54
2021/05/27 04:50:26;;;;;;;;;;;;;;;8.96;69.80;96140.34;3587636;39;19948;-54
2021/05/27 04:52:53;;;;;;;;;;;;;;;9.02;70.38;96148.06;3585985;39;19936;-54
2021/05/27 04:55:21;;;;;;;;;;;;;;;9.08;69.63;96136.59;3588668;39;19948;-53
2021/05/27 04:57:48;;;;;;;;;;;;;;;9.23;69.25;96138.66;3592231;39;19943;-54
2021/05/27 05:00:20;;;;;;;;;;;;;;;9.30;68.90;96133.22;3581954;39;19943;-54
2021/05/27 05:02:51;;;;;;;;;;;;;;;9.41;69.53;96136.81;3587762;39;19940;-54
2021/05/27 05:05:19;;;;;;;;;;;;;;;9.56;69.69;96135.41;3588721;39;20023;-53
2021/05/27 05:07:49;;;;;;;;;;;;;;;9.80;68.77;96128.06;3587305;39;20312;-54
2021/05/27 05:10:17;;;;;;;;;;;;;;;9.85;67.64;96131.56;3591716;39;19940;-54
2021/05/27 05:12:49;;;;;;;;;;;;;;;9.88;67.31;96126.84;3599143;39;19948;-53
2021/05/27 05:15:30;;;;;;;;;;;;;;;10.03;66.35;96115.69;3588549;39;20284;-53
2021/05/27 05:17:59;;;;;;;;;;;;;;;10.10;66.09;96119.72;3590452;39;20216;-53
2021/05/27 05:20:31;;;;;;;;;;;;;;;10.02;67.30;96109.63;3585070;39;20136;-53
2021/05/27 05:22:59;;;;;;;;;;;;;;;9.98;67.47;96119.84;3589013;39;19936;-54
2021/05/27 05:25:28;;;;;;;;;;;;;;;9.97;67.07;96123.53;3591232;39;20332;-54
2021/05/27 05:27:55;;;;;;;;;;;;;;;10.06;66.99;96125.75;3589104;39;19940;-54
2021/05/27 05:30:23;;;;;;;;;;;;;;;10.09;65.99;96120.75;3591615;39;19940;-54
2021/05/27 05:32:51;;;;;;;;;;;;;;;10.14;66.50;96123.47;3592553;39;20180;-54
2021/05/27 05:35:19;;;;;;;;;;;;;;;10.15;66.95;96117.13;3587686;39;19948;-54
2021/05/27 05:37:47;;;;;;;;;;;;;;;10.16;66.89;96121.34;3587491;39;19944;-54
2021/05/27 05:40:16;;;;;;;;;;;;;;;10.18;67.15;96122.94;3583815;39;19948;-54
2021/05/27 05:42:44;;;;;;;;;;;;;;;10.24;66.95;96111.44;3585026;39;20325;-55
2021/05/27 05:45:13;;;;;;;;;;;;;;;10.37;67.19;96112.88;3572773;39;19944;-55
2021/05/27 05:47:41;;;;;;;;;;;;;;;10.35;66.61;96107.84;3593958;39;19936;-54
2021/05/27 05:50:09;;;;;;;;;;;;;;;10.44;66.91;96110.88;3579004;39;19942;-54
2021/05/27 05:52:38;;;;;;;;;;;;;;;10.53;66.95;96114.63;3586736;39;19936;-55
2021/05/27 05:55:08;;;;;;;;;;;;;;;10.61;66.34;96108.13;3588628;39;19943;-54
2021/05/27 05:57:36;;;;;;;;;;;;;;;10.65;66.26;96109.19;3589008;39;19940;-55
2021/05/27 06:00:04;;;;;;;;;;;;;;;10.77;65.99;96106.41;3593269;39;19942;-54
2021/05/27 06:02:39;;;;;;;;;;;;;;;10.94;65.08;96113.41;3595381;39;20370;-54
2021/05/27 06:05:12;;;;;;;;;;;;;;;11.04;63.22;96113.47;3593284;39;19939;-53
2021/05/27 06:07:59;;;;;;;;;;;;;;;11.06;63.75;96108.72;3586177;39;20418;-53
2021/05/27 06:10:27;;;;;;;;;;;;;;;11.20;63.77;96109.06;3599050;39;19939;-54
2021/05/27 06:12:58;;;;;;;;;;;;;;;11.32;62.48;96109.69;3592469;39;19935;-54
2021/05/27 06:15:26;;;;;;;;;;;;;;;11.41;62.21;96109.19;3591487;39;19935;-54
2021/05/27 06:17:56;;;;;;;;;;;;;;;11.47;62.79;96105.53;3599658;39;20494;-54
2021/05/27 06:20:24;;;;;;;;;;;;;;;11.60;62.77;96104.25;3598567;39;19954;-55
2021/05/27 06:22:52;;;;;;;;;;;;;;;11.75;61.83;96106.19;3590839;39;19948;-55
2021/05/27 06:25:22;;;;;;;;;;;;;;;11.84;61.67;96102.00;3598923;39;19942;-54
2021/05/27 06:27:50;;;;;;;;;;;;;;;11.96;60.60;96102.56;3593072;39;19955;-55
2021/05/27 06:30:17;;;;;;;;;;;;;;;11.96;59.72;96097.28;3594448;39;19946;-55
2021/05/27 06:32:45;;;;;;;;;;;;;;;11.79;59.56;96094.03;3601129;39;20638;-54
2021/05/27 06:35:13;;;;;;;;;;;;;;;11.82;60.42;96082.97;3594055;39;19942;-55
2021/05/27 06:37:42;;;;;;;;;;;;;;;11.78;60.37;96084.53;3600020;39;19960;-54
2021/05/27 06:40:12;;;;;;;;;;;;;;;11.91;61.41;96089.31;3589329;39;19950;-55
2021/05/27 06:42:39;;;;;;;;;;;;;;;12.22;60.36;96081.53;3596660;39;19955;-58
2021/05/27 06:45:07;;;;;;;;;;;;;;;12.42;59.82;96077.31;3593733;39;19950;-54
2021/05/27 06:47:35;;;;;;;;;;;;;;;12.61;60.70;96081.00;3596823;39;19958;-55
2021/05/27 06:50:04;;;;;;;;;;;;;;;12.74;58.84;96073.59;3591980;39;19954;-55
2021/05/27 06:52:32;;;;;;;;;;;;;;;12.82;59.38;96077.56;3598710;39;20335;-54
2021/05/27 06:55:00;;;;;;;;;;;;;;;13.01;59.16;96068.03;3605892;39;19939;-54
2021/05/27 06:57:28;;;;;;;;;;;;;;;13.25;58.11;96075.41;3605535;39;19950;-55
2021/05/27 06:59:56;;;;;;;;;;;;;;;13.26;57.04;96077.00;3596542;39;19947;-53
2021/05/27 07:02:23;;;;;;;;;;;;;;;13.26;57.46;96071.69;3600060;39;19940;-59
2021/05/27 07:04:51;;;;;;;;;;;;;;;13.49;58.23;96067.66;3608670;39;19950;-55
2021/05/27 07:07:18;;;;;;;;;;;;;;;13.75;57.54;96070.22;3609466;39;19946;-53
2021/05/27 07:09:46;;;;;;;;;;;;;;;14.09;57.17;96071.41;3607933;39;19949;-54
2021/05/27 07:12:14;;;;;;;;;;;;;;;14.40;55.26;96066.69;3607893;39;20038;-57
2021/05/27 07:14:42;;;;;;;;;;;;;;;14.69;54.69;96059.88;3603418;39;19944;-55
2021/05/27 07:17:09;;;;;;;;;;;;;;;14.87;52.10;96061.03;3607384;39;19951;-55
2021/05/27 07:19:37;;;;;;;;;;;;;;;14.85;52.19;96058.66;3584596;39;19943;-55
2021/05/27 07:22:04;;;;;;;;;;;;;;;14.94;51.25;96064.19;3586538;39;19939;-54
2021/05/27 07:24:32;;;;;;;;;;;;;;;15.14;51.36;96057.06;3595775;39;19944;-55
2021/05/27 07:26:59;;;;;;;;;;;;;;;15.30;51.18;96063.81;3609338;39;19948;-54
2021/05/27 07:29:29;;;;;;;;;;;;;;;15.43;51.00;96059.69;3609097;39;19954;-54
2021/05/27 07:31:57;;;;;;;;;;;;;;;15.29;50.36;96059.59;3604297;39;20005;-54
2021/05/27 07:34:25;;;;;;;;;;;;;;;15.38;51.12;96059.75;3606793;39;19947;-54
2021/05/27 07:36:52;;;;;;;;;;;;;;;15.52;50.11;96051.88;3593719;39;19943;-54
2021/05/27 07:39:20;;;;;;;;;;;;;;;15.60;50.09;96050.47;3603021;39;20449;-54
2021/05/27 07:41:47;;;;;;;;;;;;;;;15.73;50.52;96046.31;3607973;39;19947;-54
2021/05/27 07:44:14;;;;;;;;;;;;;;;15.91;49.35;96023.50;3607330;39;20020;-54
2021/05/27 07:46:42;;;;;;;;;;;;;;;15.94;49.61;96022.94;3607453;39;19943;-54
2021/05/27 07:49:10;;;;;;;;;;;;;;;15.99;49.29;96031.63;3598533;39;20313;-55
2021/05/27 07:51:37;;;;;;;;;;;;;;;16.01;49.15;96033.22;3596707;39;19939;-55
2021/05/27 07:54:05;;;;;;;;;;;;;;;15.95;49.58;96027.94;3609273;39;19969;-54
2021/05/27 07:56:33;;;;;;;;;;;;;;;15.85;49.56;96030.75;3607492;39;20193;-55
2021/05/27 07:59:00;;;;;;;;;;;;;;;15.85;49.26;96024.66;3605456;39;19950;-54
2021/05/27 08:01:28;;;;;;;;;;;;;;;15.97;51.15;96031.13;3595581;39;20285;-55
2021/05/27 08:03:55;;;;;;;;;;;;;;;16.05;49.92;96016.38;3590283;39;19948;-54
2021/05/27 08:06:23;;;;;;;;;;;;;;;16.21;50.29;96018.84;3607864;39;19940;-55
2021/05/27 08:08:50;;;;;;;;;;;;;;;16.43;49.91;96019.00;3596600;39;20000;-54
2021/05/27 08:11:18;;;;;;;;;;;;;;;16.61;48.54;96016.63;3585615;39;20718;-54
2021/05/27 08:13:46;;;;;;;;;;;;;;;16.72;47.59;96015.38;3607251;39;20299;-55
2021/05/27 08:16:14;;;;;;;;;;;;;;;16.87;48.87;96008.16;3597063;39;20307;-55
2021/05/27 08:18:41;;;;;;;;;;;;;;;17.11;47.84;96021.38;3595513;39;19940;-54
2021/05/27 08:21:09;;;;;;;;;;;;;;;17.30;47.85;96012.47;3608980;39;19949;-55
2021/05/27 08:23:37;;;;;;;;;;;;;;;17.45;46.37;96009.50;3596354;39;19950;-55
2021/05/27 08:26:04;;;;;;;;;;;;;;;17.51;46.16;96007.53;3608994;39;19943;-55
2021/05/27 08:28:32;;;;;;;;;;;;;;;17.62;45.86;96000.13;3595663;39;19948;-53
2021/05/27 08:31:00;;;;;;;;;;;;;;;17.83;47.27;96001.25;3607476;39;19949;-54
2021/05/27 08:33:27;;;;;;;;;;;;;;;18.17;45.60;96009.09;3608511;39;20004;-55
2021/05/27 08:35:55;;;;;;;;;;;;;;;18.26;45.20;96007.31;3596035;39;19971;-54
2021/05/27 08:38:23;;;;;;;;;;;;;;;18.36;44.97;96004.38;3595652;39;19939;-54
2021/05/27 08:40:52;;;;;;;;;;;;;;;18.21;43.89;96007.41;3602792;39;20343;-54
2021/05/27 08:43:22;;;;;;;;;;;;;;;18.21;44.57;95994.88;3595249;39;20303;-55
2021/05/27 08:45:50;;;;;;;;;;;;;;;18.50;44.69;95995.53;3595345;39;19947;-55
2021/05/27 08:48:18;;;;;;;;;;;;;;;18.79;44.81;95999.59;3607151;39;19946;-55
2021/05/27 08:50:47;;;;;;;;;;;;;;;19.04;44.14;96006.22;3604390;39;19954;-55
2021/05/27 08:53:16;;;;;;;;;;;;;;;19.24;42.19;95994.19;3595243;39;19948;-55
2021/05/27 08:55:44;;;;;;;;;;;;;;;19.34;43.29;96001.94;3603510;39;19944;-54
2021/05/27 08:58:12;;;;;;;;;;;;;;;19.52;41.31;95996.59;3607161;39;19954;-54
2021/05/27 09:00:40;;;;;;;;;;;;;;;19.71;40.88;96004.34;3605456;39;19942;-55
2021/05/27 09:03:10;;;;;;;;;;;;;;;19.80;38.56;95996.34;3601078;39;19948;-55
2021/05/27 09:05:39;;;;;;;;;;;;;;;19.99;39.39;95995.31;3604640;39;19936;-55
2021/05/27 09:08:07;;;;;;;;;;;;;;;20.37;37.32;95994.66;3594210;39;19977;-55
2021/05/27 09:10:41;;;;;;;;;;;;;;;20.45;35.99;95993.88;3581890;39;20342;-55
2021/05/27 09:13:10;;;;;;;;;;;;;;;20.55;37.26;95990.84;3603446;39;19977;-55
2021/05/27 09:15:38;;;;;;;;;;;;;;;20.73;35.90;95985.47;3589804;39;19958;-56
2021/05/27 09:18:06;;;;;;;;;;;;;;;20.65;37.77;95995.09;3594889;39;20449;-55
2021/05/27 09:20:34;;;;;;;;;;;;;;;20.44;37.45;95987.69;3604801;39;20319;-55
2021/05/27 09:23:09;;;;;;;;;;;;;;;20.25;37.66;95985.34;3601245;39;19939;-56
2021/05/27 09:25:38;;;;;;;;;;;;;;;19.99;37.82;95993.41;3601017;39;20411;-56
2021/05/27 09:28:06;;;;;;;;;;;;;;;20.03;37.50;95991.69;3593741;39;19949;-56
2021/05/27 09:30:41;;;;;;;;;;;;;;;20.32;36.87;95989.47;3596080;39;20224;-55
2021/05/27 09:33:10;;;;;;;;;;;;;;;20.64;36.92;95987.34;3594572;39;19943;-56
2021/05/27 09:35:38;;;;;;;;;;;;;;;20.74;36.91;95993.19;3593971;39;20168;-55
2021/05/27 09:38:05;;;;;;;;;;;;;;;20.84;36.54;95996.63;3582689;39;19943;-57
2021/05/27 09:40:43;;;;;;;;;;;;;;;21.00;35.92;96004.94;3603942;39;20258;-56
2021/05/27 09:43:12;;;;;;;;;;;;;;;21.02;38.30;96000.84;3596844;39;19944;-56
2021/05/27 09:45:40;;;;;;;;;;;;;;;21.22;36.04;95990.50;3601923;39;19940;-56
2021/05/27 09:48:19;;;;;;;;;;;;;;;21.45;35.64;95998.28;3602982;39;19950;-56
2021/05/27 09:50:46;;;;;;;;;;;;;;;21.50;35.58;95995.44;3592996;39;19954;-56
2021/05/27 09:53:17;;;;;;;;;;;;;;;21.44;35.84;95994.81;3592759;39;20281;-56
2021/05/27 09:55:45;;;;;;;;;;;;;;;21.17;35.52;95999.53;3594430;39;19940;-56
2021/05/27 09:58:16;;;;;;;;;;;;;;;21.35;37.21;95991.41;3605368;39;19948;-56
2021/05/27 10:00:44;;;;;;;;;;;;;;;21.51;36.38;95992.41;3595512;39;19947;-56
2021/05/27 10:03:32;;;;;;;;;;;;;;;21.51;36.27;95997.78;3604971;39;19958;-56
2021/05/27 10:06:04;;;;;;;;;;;;;;;21.39;35.77;96000.38;3596224;39;19973;-55
2021/05/27 10:08:52;;;;;;;;;;;;;;;21.49;37.35;95991.94;3602753;39;19947;-55
2021/05/27 10:11:20;;;;;;;;;;;;;;;21.13;36.70;95981.72;3607269;39;19946;-56
2021/05/27 10:13:47;;;;;;;;;;;;;;;21.03;36.25;95978.28;3592820;39;20219;-55
2021/05/27 10:16:16;;;;;;;;;;;;;;;21.00;37.18;95976.25;3601408;39;20451;-55
2021/05/27 10:18:44;;;;;;;;;;;;;;;20.98;37.42;95975.78;3603905;39;19945;-55
2021/05/27 10:21:12;;;;;;;;;;;;;;;21.11;36.81;95979.34;3602910;39;19957;-56
2021/05/27 10:23:40;;;;;;;;;;;;;;;21.01;38.23;95985.06;3605278;39;19947;-57
2021/05/27 10:26:07;;;;;;;;;;;;;;;20.68;37.56;95981.03;3604943;39;20293;-55
2021/05/27 10:28:39;;;;;;;;;;;;;;;20.85;37.80;95976.75;3607240;39;19944;-57
2021/05/27 10:31:07;;;;;;;;;;;;;;;21.13;36.37;95982.50;3606139;39;19944;-55
2021/05/27 10:33:38;;;;;;;;;;;;;;;21.27;36.10;95971.56;3590222;39;19936;-55
2021/05/27 10:36:07;;;;;;;;;;;;;;;21.37;35.35;95983.81;3603366;39;19943;-57
2021/05/27 10:38:46;;;;;;;;;;;;;;;21.15;35.98;95974.13;3605626;39;20207;-55
2021/05/27 10:41:20;;;;;;;;;;;;;;;21.44;35.58;95997.50;3584673;39;19943;-56
2021/05/27 10:44:09;;;;;;;;;;;;;;;21.44;35.73;95992.16;3611782;39;19941;-56
2021/05/27 10:46:43;;;;;;;;;;;;;;;21.08;34.88;95992.63;3604488;39;19943;-56
2021/05/27 10:49:11;;;;;;;;;;;;;;;21.24;35.03;95999.03;3599503;39;19935;-56
2021/05/27 10:54:13;;;;;;;;;;;;;;;21.71;33.45;96006.22;3598491;39;20448;-56
2021/05/27 10:56:43;;;;;;;;;;;;;;;21.55;34.80;96005.19;3607322;39;19936;-55
2021/05/27 10:59:10;;;;;;;;;;;;;;;21.34;34.08;95997.88;3610276;39;19969;-56
2021/05/27 11:01:40;;;;;;;;;;;;;;;21.17;35.06;96004.13;3607673;39;19936;-55
2021/05/27 11:04:08;;;;;;;;;;;;;;;21.22;35.91;96000.47;3611443;39;19947;-56
2021/05/27 11:06:39;;;;;;;;;;;;;;;21.17;34.78;96012.94;3609228;39;19935;-56
2021/05/27 11:09:07;;;;;;;;;;;;;;;21.00;35.10;95994.22;3613105;39;19990;-59
2021/05/27 11:11:41;;;;;;;;;;;;;;;21.24;34.54;95998.22;3611545;39;19935;-56
2021/05/27 11:14:18;;;;;;;;;;;;;;;21.12;35.13;96007.72;3608434;39;20190;-56
2021/05/27 11:17:03;;;;;;;;;;;;;;;21.04;34.72;96005.88;3612728;39;19942;-55
2021/05/27 11:22:42;;;;;;;;;;;;;;;21.14;34.10;96005.53;3598701;39;19942;-54
2021/05/27 11:27:39;;;;;;;;;;;;;;;21.11;35.59;96010.75;3602452;39;19936;-56
2021/05/27 11:30:27;;;;;;;;;;;;;;;21.21;34.58;96005.03;3604704;39;20565;-56
2021/05/27 11:32:55;;;;;;;;;;;;;;;20.98;34.59;96007.94;3608750;39;19943;-55
2021/05/27 11:35:24;;;;;;;;;;;;;;;20.87;35.38;96004.81;3595126;39;19947;-55
2021/05/27 11:37:52;;;;;;;;;;;;;;;20.84;37.10;96008.16;3607689;39;19931;-55
2021/05/27 11:40:21;;;;;;;;;;;;;;;20.60;35.73;96003.28;3606784;39;20027;-55
2021/05/27 11:42:50;;;;;;;;;;;;;;;20.78;35.52;96008.66;3597481;39;19935;-55
2021/05/27 11:45:20;;;;;;;;;;;;;;;20.79;35.74;96002.19;3600417;39;19973;-55
2021/05/27 11:48:07;;;;;;;;;;;;;;;20.57;35.76;96004.72;3610879;39;19944;-57
2021/05/27 11:50:34;;;;;;;;;;;;;;;20.55;35.24;96014.97;3613452;39;19939;-55
2021/05/27 11:53:05;;;;;;;;;;;;;;;20.40;36.39;96015.44;3610833;39;20500;-55
2021/05/27 11:55:35;;;;;;;;;;;;;;;20.43;36.15;96015.59;3613516;39;19931;-55
2021/05/27 11:58:03;;;;;;;;;;;;;;;20.22;36.78;96004.75;3603583;39;19939;-55
2021/05/27 12:00:31;;;;;;;;;;;;;;;19.93;38.07;96013.41;3606321;39;19943;-55
2021/05/27 12:03:00;;;;;;;;;;;;;;;19.99;38.33;96019.41;3609073;39;19932;-55
2021/05/27 12:05:28;;;;;;;;;;;;;;;20.09;37.31;96011.84;3607288;39;19943;-55
2021/05/27 12:07:57;;;;;;;;;;;;;;;20.23;36.78;96009.00;3592826;39;19988;-56
2021/05/27 12:10:27;;;;;;;;;;;;;;;20.24;37.27;96012.47;3610171;39;19973;-57
2021/05/27 12:12:55;;;;;;;;;;;;;;;20.18;36.86;96019.09;3609017;39;19947;-57
2021/05/27 12:15:23;;;;;;;;;;;;;;;20.32;36.72;96018.94;3587593;39;19978;-57
2021/05/27 12:17:52;;;;;;;;;;;;;;;20.32;36.55;96009.00;3574905;39;19950;-56
2021/05/27 12:20:29;;;;;;;;;;;;;;;20.52;36.82;96018.28;3606272;39;20605;-56
2021/05/27 12:23:07;;;;;;;;;;;;;;;20.08;37.23;96026.31;3605881;39;20298;-55
2021/05/27 12:25:36;;;;;;;;;;;;;;;19.99;36.97;96022.84;3609500;39;19951;-55
2021/05/27 12:28:15;;;;;;;;;;;;;;;20.23;36.84;96011.69;3607908;39;19936;-55
2021/05/27 12:30:52;;;;;;;;;;;;;;;20.36;37.77;96025.25;3607561;39;19943;-56
2021/05/27 12:33:21;;;;;;;;;;;;;;;20.37;37.02;96013.44;3593751;39;19941;-54
2021/05/27 12:35:50;;;;;;;;;;;;;;;20.45;37.30;96009.94;3608946;39;19954;-54
2021/05/27 12:38:25;;;;;;;;;;;;;;;20.75;36.83;96020.78;3610474;39;20061;-54
2021/05/27 12:40:58;;;;;;;;;;;;;;;21.01;36.50;96010.00;3603798;39;19981;-54
2021/05/27 12:43:28;;;;;;;;;;;;;;;21.10;37.33;96011.84;3607938;39;19954;-54
2021/05/27 12:45:56;;;;;;;;;;;;;;;21.24;35.59;96011.63;3599455;39;19942;-61
2021/05/27 12:48:25;;;;;;;;;;;;;;;21.29;36.22;96006.88;3609518;39;19950;-58
2021/05/27 12:51:06;;;;;;;;;;;;;;;21.41;35.96;96003.53;3604495;39;19947;-56
2021/05/27 12:53:35;;;;;;;;;;;;;;;20.79;36.56;96007.56;3609383;39;19949;-61
2021/05/27 12:56:12;;;;;;;;;;;;;;;20.64;36.26;96000.75;3603676;39;19947;-57
2021/05/27 12:58:41;;;;;;;;;;;;;;;20.85;36.27;96009.75;3610654;39;19973;-63
2021/05/27 13:01:10;;;;;;;;;;;;;;;20.80;36.55;96004.53;3606120;39;20457;-56
2021/05/27 13:03:57;;;;;;;;;;;;;;;20.63;37.05;95991.94;3610303;39;19935;-56
2021/05/27 13:06:29;;;;;;;;;;;;;;;20.53;36.87;95995.72;3603483;39;20364;-55
2021/05/27 13:09:03;;;;;;;;;;;;;;;20.61;36.29;95991.47;3609280;39;19954;-55
2021/05/27 13:11:35;;;;;;;;;;;;;;;21.23;35.28;96002.03;3595467;39;19936;-55
2021/05/27 13:14:20;;;;;;;;;;;;;;;21.60;35.11;95994.31;3607426;39;20203;-56
2021/05/27 13:16:49;;;;;;;;;;;;;;;21.36;36.43;95992.97;3611564;39;19940;-55
2021/05/27 13:19:28;;;;;;;;;;;;;;;21.62;34.72;95992.84;3604258;39;19953;-56
2021/05/27 13:22:00;;;;;;;;;;;;;;;21.57;35.75;95992.22;3608412;39;19948;-56